sensor_id;sensor_type;location;lat;lon;timestamp;pressure;altitude;pressure_sealevel;temperature;humidity
4012;BME280;2020;48.682;9.024;2024-01-15T00:00:39;95376.56;;;-3.63;80.23
4012;BME280;2020;48.682;9.024;2024-01-15T00:03:04;95371.50;;;-3.63;80.36
4012;BME280;2020;48.682;9.024;2024-01-15T00:05:30;95362.53;;;-3.69;80.87
4012;BME280;2020;48.682;9.024;2024-01-15T00:07:55;95366.97;;;-3.72;80.71
4012;BME280;2020;48.682;9.024;2024-01-15T00:10:20;95363.53;;;-3.71;80.61
4012;BME280;2020;48.682;9.024;2024-01-15T00:12:45;95355.09;;;-3.72;81.21
4012;BME280;2020;48.682;9.024;2024-01-15T00:15:11;95353.34;;;-3.71;81.40
4012;BME280;2020;48.682;9.024;2024-01-15T00:17:36;95359.88;;;-3.67;81.47
4012;BME280;2020;48.682;9.024;2024-01-15T00:20:01;95365.34;;;-3.73;81.45
4012;BME280;2020;48.682;9.024;2024-01-15T00:22:27;95360.78;;;-3.68;82.03
4012;BME280;2020;48.682;9.024;2024-01-15T00:24:52;95366.59;;;-3.66;81.87
4012;BME280;2020;48.682;9.024;2024-01-15T00:27:17;95358.44;;;-3.71;82.07
4012;BME280;2020;48.682;9.024;2024-01-15T00:29:43;95361.63;;;-3.68;82.79
4012;BME280;2020;48.682;9.024;2024-01-15T00:32:08;95364.56;;;-3.61;82.68
4012;BME280;2020;48.682;9.024;2024-01-15T00:34:33;95361.97;;;-3.59;82.26
4012;BME280;2020;48.682;9.024;2024-01-15T00:36:58;95361.13;;;-3.60;82.56
4012;BME280;2020;48.682;9.024;2024-01-15T00:39:24;95356.88;;;-3.59;82.65
4012;BME280;2020;48.682;9.024;2024-01-15T00:41:49;95351.78;;;-3.59;82.57
4012;BME280;2020;48.682;9.024;2024-01-15T00:44:14;95347.88;;;-3.65;83.04
4012;BME280;2020;48.682;9.024;2024-01-15T00:46:46;95339.53;;;-3.67;83.19
4012;BME280;2020;48.682;9.024;2024-01-15T00:49:12;95348.06;;;-3.68;83.13
4012;BME280;2020;48.682;9.024;2024-01-15T00:51:38;95352.09;;;-3.78;84.25
4012;BME280;2020;48.682;9.024;2024-01-15T00:54:04;95355.34;;;-3.76;83.85
4012;BME280;2020;48.682;9.024;2024-01-15T00:56:29;95346.81;;;-3.75;84.52
4012;BME280;2020;48.682;9.024;2024-01-15T00:58:54;95345.19;;;-3.76;84.42
4012;BME280;2020;48.682;9.024;2024-01-15T01:01:20;95352.72;;;-3.75;84.58
4012;BME280;2020;48.682;9.024;2024-01-15T01:03:45;95357.00;;;-3.75;85.17
4012;BME280;2020;48.682;9.024;2024-01-15T01:06:10;95357.91;;;-3.76;84.91
4012;BME280;2020;48.682;9.024;2024-01-15T01:08:35;95354.44;;;-3.75;85.02
4012;BME280;2020;48.682;9.024;2024-01-15T01:11:01;95356.28;;;-3.77;85.45
4012;BME280;2020;48.682;9.024;2024-01-15T01:13:26;95360.06;;;-3.70;85.36
4012;BME280;2020;48.682;9.024;2024-01-15T01:15:51;95344.81;;;-3.70;85.79
4012;BME280;2020;48.682;9.024;2024-01-15T01:18:16;95353.53;;;-3.74;85.64
4012;BME280;2020;48.682;9.024;2024-01-15T01:20:42;95349.88;;;-3.70;85.99
4012;BME280;2020;48.682;9.024;2024-01-15T01:23:07;95348.06;;;-3.68;85.60
4012;BME280;2020;48.682;9.024;2024-01-15T01:25:32;95348.44;;;-3.74;85.92
4012;BME280;2020;48.682;9.024;2024-01-15T01:27:58;95353.47;;;-3.73;86.50
4012;BME280;2020;48.682;9.024;2024-01-15T01:30:23;95345.91;;;-3.74;86.69
4012;BME280;2020;48.682;9.024;2024-01-15T01:32:48;95352.34;;;-3.69;87.03
4012;BME280;2020;48.682;9.024;2024-01-15T01:35:13;95342.78;;;-3.65;86.72
4012;BME280;2020;48.682;9.024;2024-01-15T01:37:39;95353.50;;;-3.60;86.39
4012;BME280;2020;48.682;9.024;2024-01-15T01:40:05;95342.41;;;-3.59;86.81
4012;BME280;2020;48.682;9.024;2024-01-15T01:42:30;95341.50;;;-3.58;86.63
4012;BME280;2020;48.682;9.024;2024-01-15T01:44:56;95343.84;;;-3.55;86.90
4012;BME280;2020;48.682;9.024;2024-01-15T01:47:21;95338.03;;;-3.57;86.38
4012;BME280;2020;48.682;9.024;2024-01-15T01:49:46;95344.75;;;-3.56;86.89
4012;BME280;2020;48.682;9.024;2024-01-15T01:52:13;95340.59;;;-3.57;87.63
4012;BME280;2020;48.682;9.024;2024-01-15T01:54:40;95335.31;;;-3.54;86.97
4012;BME280;2020;48.682;9.024;2024-01-15T01:57:05;95341.41;;;-3.56;86.98
4012;BME280;2020;48.682;9.024;2024-01-15T01:59:31;95352.38;;;-3.56;87.10
4012;BME280;2020;48.682;9.024;2024-01-15T02:01:58;95345.66;;;-3.57;87.09
4012;BME280;2020;48.682;9.024;2024-01-15T02:04:26;95345.88;;;-3.60;87.22
4012;BME280;2020;48.682;9.024;2024-01-15T02:06:51;95347.50;;;-3.59;86.71
4012;BME280;2020;48.682;9.024;2024-01-15T02:09:18;95337.50;;;-3.62;87.39
4012;BME280;2020;48.682;9.024;2024-01-15T02:11:46;95340.88;;;-3.61;87.47
4012;BME280;2020;48.682;9.024;2024-01-15T02:14:11;95340.97;;;-3.63;87.39
4012;BME280;2020;48.682;9.024;2024-01-15T02:16:36;95331.91;;;-3.67;87.82
4012;BME280;2020;48.682;9.024;2024-01-15T02:19:02;95337.69;;;-3.65;87.71
4012;BME280;2020;48.682;9.024;2024-01-15T02:21:27;95320.63;;;-3.63;87.85
4012;BME280;2020;48.682;9.024;2024-01-15T02:23:54;95329.16;;;-3.64;87.50
4012;BME280;2020;48.682;9.024;2024-01-15T02:26:19;95324.25;;;-3.67;88.13
4012;BME280;2020;48.682;9.024;2024-01-15T02:28:45;95319.91;;;-3.65;88.17
4012;BME280;2020;48.682;9.024;2024-01-15T02:31:10;95317.53;;;-3.68;88.42
4012;BME280;2020;48.682;9.024;2024-01-15T02:33:35;95316.56;;;-3.65;88.17
4012;BME280;2020;48.682;9.024;2024-01-15T02:36:00;95325.09;;;-3.67;87.79
4012;BME280;2020;48.682;9.024;2024-01-15T02:38:26;95325.09;;;-3.67;88.11
4012;BME280;2020;48.682;9.024;2024-01-15T02:40:51;95326.28;;;-3.72;88.24
4012;BME280;2020;48.682;9.024;2024-01-15T02:43:16;95326.28;;;-3.72;88.09
4012;BME280;2020;48.682;9.024;2024-01-15T02:45:44;95325.47;;;-3.73;88.18
4012;BME280;2020;48.682;9.024;2024-01-15T02:48:09;95317.53;;;-3.68;87.96
4012;BME280;2020;48.682;9.024;2024-01-15T02:50:34;95320.81;;;-3.66;87.79
4012;BME280;2020;48.682;9.024;2024-01-15T02:52:59;95315.00;;;-3.68;87.85
4012;BME280;2020;48.682;9.024;2024-01-15T02:55:25;95315.53;;;-3.63;88.07
4012;BME280;2020;48.682;9.024;2024-01-15T02:57:50;95317.34;;;-3.65;87.54
4012;BME280;2020;48.682;9.024;2024-01-15T03:00:15;95319.38;;;-3.70;87.76
4012;BME280;2020;48.682;9.024;2024-01-15T03:02:43;95309.00;;;-3.67;87.89
4012;BME280;2020;48.682;9.024;2024-01-15T03:05:12;95318.97;;;-3.64;87.92
4012;BME280;2020;48.682;9.024;2024-01-15T03:07:37;95317.16;;;-3.62;87.44
4012;BME280;2020;48.682;9.024;2024-01-15T03:10:02;95313.72;;;-3.61;87.39
4012;BME280;2020;48.682;9.024;2024-01-15T03:12:28;95318.97;;;-3.64;87.73
4012;BME280;2020;48.682;9.024;2024-01-15T03:14:53;95313.72;;;-3.61;87.23
4012;BME280;2020;48.682;9.024;2024-01-15T03:17:18;95322.44;;;-3.65;87.95
4012;BME280;2020;48.682;9.024;2024-01-15T03:19:44;95317.16;;;-3.62;87.79
4012;BME280;2020;48.682;9.024;2024-01-15T03:22:09;95312.78;;;-3.60;87.78
4012;BME280;2020;48.682;9.024;2024-01-15T03:24:35;95310.25;;;-3.60;87.80
4012;BME280;2020;48.682;9.024;2024-01-15T03:27:00;95310.25;;;-3.60;87.93
4012;BME280;2020;48.682;9.024;2024-01-15T03:29:26;95308.44;;;-3.58;87.67
4012;BME280;2020;48.682;9.024;2024-01-15T03:31:51;95311.81;;;-3.57;87.79
4012;BME280;2020;48.682;9.024;2024-01-15T03:34:17;95299.69;;;-3.54;88.17
4012;BME280;2020;48.682;9.024;2024-01-15T03:36:42;95296.81;;;-3.62;88.03
4012;BME280;2020;48.682;9.024;2024-01-15T03:39:07;95298.25;;;-3.58;88.17
4012;BME280;2020;48.682;9.024;2024-01-15T03:41:32;95292.97;;;-3.55;88.43
4012;BME280;2020;48.682;9.024;2024-01-15T03:43:58;95297.84;;;-3.52;88.31
4012;BME280;2020;48.682;9.024;2024-01-15T03:46:24;95295.22;;;-3.50;88.03
4012;BME280;2020;48.682;9.024;2024-01-15T03:48:49;95287.69;;;-3.52;87.98
4012;BME280;2020;48.682;9.024;2024-01-15T03:51:16;95281.47;;;-3.47;88.40
4012;BME280;2020;48.682;9.024;2024-01-15T03:53:42;95283.13;;;-3.46;88.69
4012;BME280;2020;48.682;9.024;2024-01-15T03:56:07;95283.13;;;-3.46;88.69
4012;BME280;2020;48.682;9.024;2024-01-15T03:58:32;95278.75;;;-3.44;88.87
4012;BME280;2020;48.682;9.024;2024-01-15T04:00:57;95278.53;;;-3.41;89.05
4012;BME280;2020;48.682;9.024;2024-01-15T04:03:23;95283.44;;;-3.38;89.21
4012;BME280;2020;48.682;9.024;2024-01-15T04:05:48;95283.63;;;-3.41;89.73
4012;BME280;2020;48.682;9.024;2024-01-15T04:08:13;95282.63;;;-3.39;89.64
4012;BME280;2020;48.682;9.024;2024-01-15T04:10:38;95276.53;;;-3.36;89.85
4012;BME280;2020;48.682;9.024;2024-01-15T04:13:04;95277.34;;;-3.35;89.81
4012;BME280;2020;48.682;9.024;2024-01-15T04:15:29;95269.78;;;-3.37;89.54
4012;BME280;2020;48.682;9.024;2024-01-15T04:17:54;95271.44;;;-3.36;89.79
4012;BME280;2020;48.682;9.024;2024-01-15T04:20:19;95273.06;;;-3.35;90.27
4012;BME280;2020;48.682;9.024;2024-01-15T04:22:45;95273.78;;;-3.33;90.15
4012;BME280;2020;48.682;9.024;2024-01-15T04:25:10;95272.69;;;-3.29;90.02
4012;BME280;2020;48.682;9.024;2024-01-15T04:27:35;95279.41;;;-3.28;89.86
4012;BME280;2020;48.682;9.024;2024-01-15T04:30:00;95271.06;;;-3.30;89.37
4012;BME280;2020;48.682;9.024;2024-01-15T04:32:26;95267.41;;;-3.26;89.62
4012;BME280;2020;48.682;9.024;2024-01-15T04:34:51;95272.50;;;-3.26;89.83
4012;BME280;2020;48.682;9.024;2024-01-15T04:37:16;95279.41;;;-3.28;89.66
4012;BME280;2020;48.682;9.024;2024-01-15T04:39:41;95277.78;;;-3.29;90.27
4012;BME280;2020;48.682;9.024;2024-01-15T04:42:07;95277.06;;;-3.31;90.60
4012;BME280;2020;48.682;9.024;2024-01-15T04:44:32;95265.97;;;-3.30;91.05
4012;BME280;2020;48.682;9.024;2024-01-15T04:46:57;95277.94;;;-3.32;91.02
4012;BME280;2020;48.682;9.024;2024-01-15T04:49:22;95279.63;;;-3.31;91.18
4012;BME280;2020;48.682;9.024;2024-01-15T04:51:51;95289.78;;;-3.31;90.84
4012;BME280;2020;48.682;9.024;2024-01-15T04:54:16;95275.25;;;-3.29;91.03
4012;BME280;2020;48.682;9.024;2024-01-15T04:56:43;95275.94;;;-3.27;91.36
4012;BME280;2020;48.682;9.024;2024-01-15T04:59:08;95280.00;;;-3.24;91.25
4012;BME280;2020;48.682;9.024;2024-01-15T05:01:34;95279.00;;;-3.21;91.20
4012;BME280;2020;48.682;9.024;2024-01-15T05:03:59;95286.72;;;-3.23;90.65
4012;BME280;2020;48.682;9.024;2024-01-15T05:06:24;95280.84;;;-3.24;90.95
4012;BME280;2020;48.682;9.024;2024-01-15T05:08:50;95273.91;;;-3.21;91.33
4012;BME280;2020;48.682;9.024;2024-01-15T05:11:15;95279.94;;;-3.22;91.17
4012;BME280;2020;48.682;9.024;2024-01-15T05:13:40;95279.00;;;-3.21;91.24
4012;BME280;2020;48.682;9.024;2024-01-15T05:16:06;95287.56;;;-3.22;91.04
4012;BME280;2020;48.682;9.024;2024-01-15T05:18:31;95284.09;;;-3.21;91.29
4012;BME280;2020;48.682;9.024;2024-01-15T05:20:56;95277.38;;;-3.22;91.29
4012;BME280;2020;48.682;9.024;2024-01-15T05:23:21;95277.59;;;-3.26;91.82
4012;BME280;2020;48.682;9.024;2024-01-15T05:25:47;95269.03;;;-3.25;92.59
4012;BME280;2020;48.682;9.024;2024-01-15T05:28:13;95275.75;;;-3.24;92.89
4012;BME280;2020;48.682;9.024;2024-01-15T05:30:38;95264.75;;;-3.24;92.66
4012;BME280;2020;48.682;9.024;2024-01-15T05:33:04;95262.31;;;-3.26;92.76
4012;BME280;2020;48.682;9.024;2024-01-15T05:35:29;95271.66;;;-3.26;92.54
4012;BME280;2020;48.682;9.024;2024-01-15T05:37:54;95255.59;;;-3.27;93.06
4012;BME280;2020;48.682;9.024;2024-01-15T05:40:20;95265.78;;;-3.27;92.53
4012;BME280;2020;48.682;9.024;2024-01-15T05:42:45;95263.94;;;-3.25;92.86
4012;BME280;2020;48.682;9.024;2024-01-15T05:45:10;95247.03;;;-3.26;92.97
4012;BME280;2020;48.682;9.024;2024-01-15T05:47:35;95237.06;;;-3.29;93.34
4012;BME280;2020;48.682;9.024;2024-01-15T05:50:01;95246.31;;;-3.28;93.23
4012;BME280;2020;48.682;9.024;2024-01-15T05:52:27;95240.53;;;-3.30;92.92
4012;BME280;2020;48.682;9.024;2024-01-15T05:54:52;95255.97;;;-3.33;93.05
4012;BME280;2020;48.682;9.024;2024-01-15T05:57:17;95247.41;;;-3.32;93.67
4012;BME280;2020;48.682;9.024;2024-01-15T05:59:44;95258.50;;;-3.33;93.43
4012;BME280;2020;48.682;9.024;2024-01-15T06:02:09;95248.03;;;-3.28;92.82
4012;BME280;2020;48.682;9.024;2024-01-15T06:04:35;95245.63;;;-3.30;92.54
4012;BME280;2020;48.682;9.024;2024-01-15T06:07:00;95245.63;;;-3.30;92.28
4012;BME280;2020;48.682;9.024;2024-01-15T06:09:25;95250.50;;;-3.27;92.12
4012;BME280;2020;48.682;9.024;2024-01-15T06:11:51;95251.41;;;-3.28;92.16
4012;BME280;2020;48.682;9.024;2024-01-15T06:14:16;95247.03;;;-3.26;92.34
4012;BME280;2020;48.682;9.024;2024-01-15T06:16:42;95247.63;;;-3.35;93.05
4012;BME280;2020;48.682;9.024;2024-01-15T06:19:07;95255.97;;;-3.33;93.71
4012;BME280;2020;48.682;9.024;2024-01-15T06:21:32;95240.19;;;-3.38;94.15
4012;BME280;2020;48.682;9.024;2024-01-15T06:23:57;95243.34;;;-3.34;93.91
4012;BME280;2020;48.682;9.024;2024-01-15T06:26:23;95230.50;;;-3.33;93.87
4012;BME280;2020;48.682;9.024;2024-01-15T06:28:48;95225.63;;;-3.36;94.52
4012;BME280;2020;48.682;9.024;2024-01-15T06:31:14;95210.75;;;-3.42;95.33
4012;BME280;2020;48.682;9.024;2024-01-15T06:33:39;95222.56;;;-3.41;96.35
4012;BME280;2020;48.682;9.024;2024-01-15T06:36:05;95221.56;;;-3.39;95.43
4012;BME280;2020;48.682;9.024;2024-01-15T06:38:30;95220.53;;;-3.36;94.27
4012;BME280;2020;48.682;9.024;2024-01-15T06:40:56;95206.91;;;-3.35;93.66
4012;BME280;2020;48.682;9.024;2024-01-15T06:43:21;95217.78;;;-3.33;93.95
4012;BME280;2020;48.682;9.024;2024-01-15T06:45:46;95215.06;;;-3.30;93.47
4012;BME280;2020;48.682;9.024;2024-01-15T06:48:12;95218.34;;;-3.28;93.15
4012;BME280;2020;48.682;9.024;2024-01-15T06:50:42;95212.00;;;-3.35;94.10
4012;BME280;2020;48.682;9.024;2024-01-15T06:53:07;95208.53;;;-3.34;94.51
4012;BME280;2020;48.682;9.024;2024-01-15T06:55:32;95203.84;;;-3.40;95.23
4012;BME280;2020;48.682;9.024;2024-01-15T06:57:57;95215.84;;;-3.42;95.91
4012;BME280;2020;48.682;9.024;2024-01-15T07:00:23;95219.09;;;-3.40;95.35
4012;BME280;2020;48.682;9.024;2024-01-15T07:02:48;95214.03;;;-3.40;95.11
4012;BME280;2020;48.682;9.024;2024-01-15T07:05:13;95212.59;;;-3.44;95.26
4012;BME280;2020;48.682;9.024;2024-01-15T07:07:39;95207.50;;;-3.44;94.77
4012;BME280;2020;48.682;9.024;2024-01-15T07:10:05;95211.66;;;-3.43;94.38
4012;BME280;2020;48.682;9.024;2024-01-15T07:12:31;95209.34;;;-3.46;95.09
4012;BME280;2020;48.682;9.024;2024-01-15T07:14:56;95215.97;;;-3.44;95.18
4012;BME280;2020;48.682;9.024;2024-01-15T07:17:22;95215.66;;;-3.39;95.10
4012;BME280;2020;48.682;9.024;2024-01-15T07:19:47;95220.34;;;-3.33;94.50
4012;BME280;2020;48.682;9.024;2024-01-15T07:22:12;95223.78;;;-3.34;93.91
4012;BME280;2020;48.682;9.024;2024-01-15T07:24:38;95225.44;;;-3.33;93.57
4012;BME280;2020;48.682;9.024;2024-01-15T07:27:04;95222.50;;;-3.27;92.53
4012;BME280;2020;48.682;9.024;2024-01-15T07:29:30;95218.34;;;-3.28;91.39
4012;BME280;2020;48.682;9.024;2024-01-15T07:31:55;95215.47;;;-3.23;91.26
4012;BME280;2020;48.682;9.024;2024-01-15T07:34:21;95214.66;;;-3.24;91.08
4012;BME280;2020;48.682;9.024;2024-01-15T07:36:47;95209.56;;;-3.24;89.60
4012;BME280;2020;48.682;9.024;2024-01-15T07:39:12;95212.63;;;-3.18;89.87
4012;BME280;2020;48.682;9.024;2024-01-15T07:41:38;95212.50;;;-3.17;89.63
4012;BME280;2020;48.682;9.024;2024-01-15T07:44:04;95212.44;;;-3.15;88.77
4012;BME280;2020;48.682;9.024;2024-01-15T07:46:29;95214.84;;;-3.14;88.35
4012;BME280;2020;48.682;9.024;2024-01-15T07:48:54;95216.50;;;-3.13;88.33
4012;BME280;2020;48.682;9.024;2024-01-15T07:51:24;95213.84;;;-3.11;86.85
4012;BME280;2020;48.682;9.024;2024-01-15T07:53:50;95216.91;;;-3.06;86.38
4012;BME280;2020;48.682;9.024;2024-01-15T07:56:15;95218.53;;;-3.05;85.71
4012;BME280;2020;48.682;9.024;2024-01-15T07:58:41;95227.69;;;-3.02;85.49
4012;BME280;2020;48.682;9.024;2024-01-15T08:01:06;95225.06;;;-3.01;85.46
4012;BME280;2020;48.682;9.024;2024-01-15T08:03:32;95223.81;;;-2.95;86.18
4012;BME280;2020;48.682;9.024;2024-01-15T08:05:58;95216.09;;;-2.94;85.63
4012;BME280;2020;48.682;9.024;2024-01-15T08:08:24;95222.09;;;-2.95;84.56
4012;BME280;2020;48.682;9.024;2024-01-15T08:10:50;95226.47;;;-2.97;84.49
4012;BME280;2020;48.682;9.024;2024-01-15T08:13:15;95221.19;;;-2.94;85.62
4012;BME280;2020;48.682;9.024;2024-01-15T08:15:41;95231.16;;;-2.90;85.18
4012;BME280;2020;48.682;9.024;2024-01-15T08:18:06;95215.75;;;-2.89;84.54
4012;BME280;2020;48.682;9.024;2024-01-15T08:20:32;95228.28;;;-2.86;84.71
4012;BME280;2020;48.682;9.024;2024-01-15T08:22:57;95223.81;;;-2.82;84.24
4012;BME280;2020;48.682;9.024;2024-01-15T08:25:23;95221.78;;;-2.77;83.78
4012;BME280;2020;48.682;9.024;2024-01-15T08:27:48;95229.19;;;-2.74;83.02
4012;BME280;2020;48.682;9.024;2024-01-15T08:30:14;95220.53;;;-2.71;82.30
4012;BME280;2020;48.682;9.024;2024-01-15T08:32:39;95220.31;;;-2.68;81.86
4012;BME280;2020;48.682;9.024;2024-01-15T08:35:08;95210.84;;;-2.66;80.87
4012;BME280;2020;48.682;9.024;2024-01-15T08:37:33;95214.63;;;-2.59;81.13
4012;BME280;2020;48.682;9.024;2024-01-15T08:39:59;95208.47;;;-2.56;80.19
4012;BME280;2020;48.682;9.024;2024-01-15T08:42:24;95197.88;;;-2.50;80.27
4012;BME280;2020;48.682;9.024;2024-01-15T08:44:49;95201.34;;;-2.51;78.45
4012;BME280;2020;48.682;9.024;2024-01-15T08:47:15;95187.59;;;-2.48;78.27
4012;BME280;2020;48.682;9.024;2024-01-15T08:49:41;95199.06;;;-2.43;77.97
4012;BME280;2020;48.682;9.024;2024-01-15T08:52:08;95204.88;;;-2.41;77.71
4012;BME280;2020;48.682;9.024;2024-01-15T08:54:33;95220.66;;;-2.36;78.30
4012;BME280;2020;48.682;9.024;2024-01-15T08:56:58;95212.31;;;-2.38;76.67
4012;BME280;2020;48.682;9.024;2024-01-15T08:59:24;95223.22;;;-2.36;76.78
4012;BME280;2020;48.682;9.024;2024-01-15T09:01:53;95203.75;;;-2.37;76.42
4012;BME280;2020;48.682;9.024;2024-01-15T09:04:19;95198.56;;;-2.35;76.24
4012;BME280;2020;48.682;9.024;2024-01-15T09:06:45;95202.13;;;-2.38;76.74
4012;BME280;2020;48.682;9.024;2024-01-15T09:09:12;95193.13;;;-2.30;77.45
4012;BME280;2020;48.682;9.024;2024-01-15T09:11:37;95196.38;;;-2.28;77.27
4012;BME280;2020;48.682;9.024;2024-01-15T09:14:02;95185.97;;;-2.25;77.10
4012;BME280;2020;48.682;9.024;2024-01-15T09:16:28;95187.59;;;-2.24;76.92
4012;BME280;2020;48.682;9.024;2024-01-15T09:18:53;95178.31;;;-2.25;76.97
4012;BME280;2020;48.682;9.024;2024-01-15T09:21:18;95190.13;;;-2.24;77.30
4012;BME280;2020;48.682;9.024;2024-01-15T09:23:44;95193.19;;;-2.19;78.14
4012;BME280;2020;48.682;9.024;2024-01-15T09:26:09;95185.66;;;-2.21;77.81
4012;BME280;2020;48.682;9.024;2024-01-15T09:28:34;95182.28;;;-2.21;77.43
4012;BME280;2020;48.682;9.024;2024-01-15T09:30:59;95176.75;;;-2.15;77.50
4012;BME280;2020;48.682;9.024;2024-01-15T09:33:25;95166.31;;;-2.12;76.50
4012;BME280;2020;48.682;9.024;2024-01-15T09:35:50;95163.91;;;-2.13;77.55
4012;BME280;2020;48.682;9.024;2024-01-15T09:38:15;95172.38;;;-2.01;78.07
4012;BME280;2020;48.682;9.024;2024-01-15T09:40:43;95170.00;;;-1.92;77.69
4012;BME280;2020;48.682;9.024;2024-01-15T09:43:08;95180.34;;;-1.93;76.42
4012;BME280;2020;48.682;9.024;2024-01-15T09:45:34;95175.00;;;-1.90;75.96
4012;BME280;2020;48.682;9.024;2024-01-15T09:47:59;95173.97;;;-1.87;76.33
4012;BME280;2020;48.682;9.024;2024-01-15T09:50:24;95184.78;;;-1.84;75.87
4012;BME280;2020;48.682;9.024;2024-01-15T09:52:50;95174.56;;;-1.84;75.45
4012;BME280;2020;48.682;9.024;2024-01-15T09:55:17;95182.94;;;-1.82;75.49
4012;BME280;2020;48.682;9.024;2024-01-15T09:57:44;95179.66;;;-1.84;75.29
4012;BME280;2020;48.682;9.024;2024-01-15T10:00:10;95172.72;;;-1.82;75.38
4012;BME280;2020;48.682;9.024;2024-01-15T10:02:36;95166.00;;;-1.83;74.70
4012;BME280;2020;48.682;9.024;2024-01-15T10:05:01;95162.53;;;-1.82;74.55
4012;BME280;2020;48.682;9.024;2024-01-15T10:07:29;95163.22;;;-1.80;75.38
4012;BME280;2020;48.682;9.024;2024-01-15T10:09:54;95170.28;;;-1.83;75.02
4012;BME280;2020;48.682;9.024;2024-01-15T10:12:21;95167.63;;;-1.82;74.96
4012;BME280;2020;48.682;9.024;2024-01-15T10:14:47;95152.31;;;-1.82;75.11
4012;BME280;2020;48.682;9.024;2024-01-15T10:17:14;95156.16;;;-1.76;75.59
4012;BME280;2020;48.682;9.024;2024-01-15T10:19:40;95160.09;;;-1.72;75.73
4012;BME280;2020;48.682;9.024;2024-01-15T10:22:07;95156.97;;;-1.75;75.36
4012;BME280;2020;48.682;9.024;2024-01-15T10:24:37;95151.88;;;-1.75;76.13
4012;BME280;2020;48.682;9.024;2024-01-15T10:27:07;95167.19;;;-1.75;75.51
4012;BME280;2020;48.682;9.024;2024-01-15T10:29:32;95158.59;;;-1.74;76.09
4012;BME280;2020;48.682;9.024;2024-01-15T10:31:58;95164.72;;;-1.77;75.86
4012;BME280;2020;48.682;9.024;2024-01-15T10:34:24;95162.28;;;-1.79;76.58
4012;BME280;2020;48.682;9.024;2024-01-15T10:36:50;95148.50;;;-1.76;76.53
4012;BME280;2020;48.682;9.024;2024-01-15T10:39:20;95155.13;;;-1.73;76.82
4012;BME280;2020;48.682;9.024;2024-01-15T10:41:45;95146.53;;;-1.72;77.12
4012;BME280;2020;48.682;9.024;2024-01-15T10:44:11;95149.56;;;-1.67;77.25
4012;BME280;2020;48.682;9.024;2024-01-15T10:46:36;95155.38;;;-1.65;77.42
4012;BME280;2020;48.682;9.024;2024-01-15T10:49:03;95142.84;;;-1.68;77.35
4012;BME280;2020;48.682;9.024;2024-01-15T10:51:29;95138.66;;;-1.69;77.23
4012;BME280;2020;48.682;9.024;2024-01-15T10:53:56;95132.41;;;-1.65;78.14
4012;BME280;2020;48.682;9.024;2024-01-15T10:56:22;95124.06;;;-1.67;78.08
4012;BME280;2020;48.682;9.024;2024-01-15T10:58:49;95135.41;;;-1.71;77.99
4012;BME280;2020;48.682;9.024;2024-01-15T11:01:15;95132.63;;;-1.68;79.02
4012;BME280;2020;48.682;9.024;2024-01-15T11:03:42;95134.72;;;-1.73;79.42
4012;BME280;2020;48.682;9.024;2024-01-15T11:06:16;95128.56;;;-1.71;80.05
4012;BME280;2020;48.682;9.024;2024-01-15T11:08:45;95140.03;;;-1.77;82.03
4012;BME280;2020;48.682;9.024;2024-01-15T11:11:11;95132.13;;;-1.85;83.04
4012;BME280;2020;48.682;9.024;2024-01-15T11:16:03;95124.34;;;-1.83;85.94
4012;BME280;2020;48.682;9.024;2024-01-15T11:21:24;95118.91;;;-1.90;83.71
4012;BME280;2020;48.682;9.024;2024-01-15T11:23:53;95114.50;;;-1.88;84.15
4012;BME280;2020;48.682;9.024;2024-01-15T11:26:43;95116.59;;;-1.82;84.33
4012;BME280;2020;48.682;9.024;2024-01-15T11:34:21;95111.50;;;-1.82;84.71
4012;BME280;2020;48.682;9.024;2024-01-15T11:37:06;95113.94;;;-1.80;85.03
4012;BME280;2020;48.682;9.024;2024-01-15T11:42:01;95115.19;;;-1.86;85.38
4012;BME280;2020;48.682;9.024;2024-01-15T11:44:28;95103.16;;;-1.84;87.39
4012;BME280;2020;48.682;9.024;2024-01-15T11:46:57;95106.41;;;-1.82;88.14
4012;BME280;2020;48.682;9.024;2024-01-15T11:52:00;95113.13;;;-1.81;89.01
4012;BME280;2020;48.682;9.024;2024-01-15T11:54:29;95129.59;;;-1.73;89.50
4012;BME280;2020;48.682;9.024;2024-01-15T11:56:57;95124.13;;;-1.80;90.71
4012;BME280;2020;48.682;9.024;2024-01-15T11:59:25;95133.53;;;-1.81;92.17
4012;BME280;2020;48.682;9.024;2024-01-15T12:01:50;95126.09;;;-1.84;93.11
4012;BME280;2020;48.682;9.024;2024-01-15T12:04:16;95129.91;;;-1.89;96.65
4012;BME280;2020;48.682;9.024;2024-01-15T12:06:44;95132.28;;;-1.99;99.65
4012;BME280;2020;48.682;9.024;2024-01-15T12:09:10;95129.31;;;-1.93;100.00
4012;BME280;2020;48.682;9.024;2024-01-15T12:11:36;95123.41;;;-1.94;100.00
4012;BME280;2020;48.682;9.024;2024-01-15T12:14:02;95126.13;;;-2.08;100.00
4012;BME280;2020;48.682;9.024;2024-01-15T12:16:28;95130.19;;;-2.06;100.00
4012;BME280;2020;48.682;9.024;2024-01-15T12:18:53;95129.22;;;-2.16;100.00
4012;BME280;2020;48.682;9.024;2024-01-15T12:21:18;95130.16;;;-2.17;100.00
4012;BME280;2020;48.682;9.024;2024-01-15T12:23:46;95132.69;;;-2.17;100.00
4012;BME280;2020;48.682;9.024;2024-01-15T12:26:11;95122.19;;;-2.12;100.00
4012;BME280;2020;48.682;9.024;2024-01-15T12:28:36;95120.44;;;-2.12;100.00
4012;BME280;2020;48.682;9.024;2024-01-15T12:31:02;95122.28;;;-2.14;100.00
4012;BME280;2020;48.682;9.024;2024-01-15T12:33:30;95123.47;;;-2.07;100.00
4012;BME280;2020;48.682;9.024;2024-01-15T12:35:55;95120.69;;;-2.03;100.00
4012;BME280;2020;48.682;9.024;2024-01-15T12:38:21;95125.09;;;-2.06;100.00
4012;BME280;2020;48.682;9.024;2024-01-15T12:40:46;95131.81;;;-2.04;100.00
4012;BME280;2020;48.682;9.024;2024-01-15T12:43:11;95132.47;;;-2.14;100.00
4012;BME280;2020;48.682;9.024;2024-01-15T12:45:37;95135.94;;;-2.15;100.00
4012;BME280;2020;48.682;9.024;2024-01-15T12:48:04;95132.69;;;-2.17;100.00
4012;BME280;2020;48.682;9.024;2024-01-15T12:50:29;95132.69;;;-2.17;100.00
4012;BME280;2020;48.682;9.024;2024-01-15T12:52:55;95130.84;;;-2.15;100.00
4012;BME280;2020;48.682;9.024;2024-01-15T12:55:20;95129.44;;;-2.19;100.00
4012;BME280;2020;48.682;9.024;2024-01-15T12:57:45;95144.97;;;-2.22;100.00
4012;BME280;2020;48.682;9.024;2024-01-15T13:00:11;95138.22;;;-2.23;100.00
4012;BME280;2020;48.682;9.024;2024-01-15T13:02:41;95129.66;;;-2.22;100.00
4012;BME280;2020;48.682;9.024;2024-01-15T13:05:08;95131.91;;;-2.17;100.00
4012;BME280;2020;48.682;9.024;2024-01-15T13:07:34;95130.41;;;-2.09;100.00
4012;BME280;2020;48.682;9.024;2024-01-15T13:09:59;95133.44;;;-2.03;100.00
4012;BME280;2020;48.682;9.024;2024-01-15T13:12:24;95132.25;;;-2.11;100.00
4012;BME280;2020;48.682;9.024;2024-01-15T13:14:50;95137.84;;;-2.06;100.00
4012;BME280;2020;48.682;9.024;2024-01-15T13:17:15;95140.38;;;-2.06;100.00
4012;BME280;2020;48.682;9.024;2024-01-15T13:19:40;95146.69;;;-1.98;100.00
4012;BME280;2020;48.682;9.024;2024-01-15T13:22:06;95154.00;;;-1.94;100.00
4012;BME280;2020;48.682;9.024;2024-01-15T13:24:35;95144.03;;;-1.97;100.00
4012;BME280;2020;48.682;9.024;2024-01-15T13:27:01;95143.41;;;-2.00;100.00